Time;durP1;ratioP1;P1;durP2;ratioP2;P2;SDS_P1;SDS_P2;PMS_P1;PMS_P2;Temp;Humidity;BMP_temperature;BMP_pressure;BME280_temperature;BME280_humidity;BME280_pressure;Samples;Min_cycle;Max_cycle;Signal;HPM_P1;HPM_P2
2022/01/13 00:01:42;;;;;;;28.33;12.75;;;;;;;;;;4899427;29;20473;-76
2022/01/13 00:04:10;;;;;;;27.43;10.67;;;;;;;;;;4883341;29;20115;-76
2022/01/13 00:06:35;;;;;;;26.40;13.00;;;;;;;;;;4900241;29;20021;-77
2022/01/13 00:09:01;;;;;;;30.90;12.27;;;;;;;;;;4900121;29;20542;-76
2022/01/13 00:11:26;;;;;;;25.92;12.38;;;;;;;;;;4883288;29;20025;-77
2022/01/13 00:14:08;;;;;;;30.50;13.73;;;;;;;;;;4883120;29;20025;-77
2022/01/13 00:19:18;;;;;;;29.30;10.68;;;;;;;;;;4899891;29;20486;-77
2022/01/13 00:22:16;;;;;;;26.33;12.45;;;;;;;;;;4902642;29;20161;-77
2022/01/13 00:24:44;;;;;;;33.13;13.48;;;;;;;;;;4904078;29;20020;-77
2022/01/13 00:27:12;;;;;;;27.65;12.07;;;;;;;;;;4904568;29;20137;-77
2022/01/13 00:29:42;;;;;;;31.38;13.23;;;;;;;;;;4902746;29;20024;-78
2022/01/13 00:32:09;;;;;;;24.90;11.88;;;;;;;;;;4901194;29;20032;-76
2022/01/13 00:34:34;;;;;;;27.35;11.88;;;;;;;;;;4901841;29;20025;-75
2022/01/13 00:36:59;;;;;;;32.35;12.48;;;;;;;;;;4901239;29;20031;-76
2022/01/13 00:39:25;;;;;;;25.50;12.87;;;;;;;;;;4900733;29;20498;-77
2022/01/13 00:41:50;;;;;;;31.10;14.05;;;;;;;;;;4900747;29;20103;-76
2022/01/13 00:44:19;;;;;;;29.87;11.53;;;;;;;;;;4899835;29;20028;-76
2022/01/13 00:46:46;;;;;;;29.05;11.38;;;;;;;;;;4898772;29;20024;-76
2022/01/13 00:49:13;;;;;;;25.42;10.40;;;;;;;;;;4900494;29;20032;-75
2022/01/13 00:51:39;;;;;;;27.90;12.30;;;;;;;;;;4898665;29;20028;-76
2022/01/13 00:54:06;;;;;;;29.27;12.77;;;;;;;;;;4898058;29;20080;-76
2022/01/13 00:56:32;;;;;;;28.27;11.23;;;;;;;;;;4899448;29;20099;-76
2022/01/13 00:58:58;;;;;;;32.27;14.03;;;;;;;;;;4899216;29;20055;-75
2022/01/13 01:01:23;;;;;;;29.73;13.15;;;;;;;;;;4899220;29;20518;-77
2022/01/13 01:03:49;;;;;;;30.65;13.75;;;;;;;;;;4897919;29;20486;-76
2022/01/13 01:06:14;;;;;;;24.17;12.30;;;;;;;;;;4899232;29;20100;-77
2022/01/13 01:08:43;;;;;;;29.60;12.80;;;;;;;;;;4899092;29;20479;-77
2022/01/13 01:11:08;;;;;;;22.50;10.18;;;;;;;;;;4899176;29;20021;-77
2022/01/13 01:13:35;;;;;;;25.83;10.00;;;;;;;;;;4897727;29;20390;-77
2022/01/13 01:16:04;;;;;;;27.27;11.68;;;;;;;;;;4898982;29;20027;-76
2022/01/13 01:18:37;;;;;;;25.92;11.02;;;;;;;;;;4882045;29;20024;-76
2022/01/13 01:24:55;;;;;;;28.83;11.30;;;;;;;;;;4898680;29;20024;-76
2022/01/13 01:29:14;;;;;;;24.10;11.43;;;;;;;;;;4899059;29;20116;-77
2022/01/13 01:31:45;;;;;;;23.77;11.43;;;;;;;;;;4898648;29;20099;-76
2022/01/13 01:36:55;;;;;;;25.53;11.20;;;;;;;;;;4899621;29;20035;-75
2022/01/13 01:39:24;;;;;;;27.93;12.30;;;;;;;;;;4900615;29;20024;-76
2022/01/13 01:41:50;;;;;;;26.05;11.40;;;;;;;;;;4899850;29;20033;-77
2022/01/13 01:44:16;;;;;;;25.33;12.03;;;;;;;;;;4898670;29;20419;-77
2022/01/13 01:46:45;;;;;;;29.45;12.02;;;;;;;;;;4897756;29;20490;-76
2022/01/13 01:49:20;;;;;;;27.35;11.43;;;;;;;;;;4898537;29;20016;-77
2022/01/13 01:51:47;;;;;;;30.83;11.45;;;;;;;;;;4897468;29;20024;-77
2022/01/13 01:54:12;;;;;;;25.73;11.50;;;;;;;;;;4899144;29;20016;-76
2022/01/13 01:56:37;;;;;;;30.98;11.07;;;;;;;;;;4882956;29;20171;-76
2022/01/13 01:59:06;;;;;;;23.02;11.07;;;;;;;;;;4898100;29;20032;-76
2022/01/13 02:01:31;;;;;;;29.77;11.82;;;;;;;;;;4898045;29;20486;-76
2022/01/13 02:03:56;;;;;;;28.27;10.50;;;;;;;;;;4881512;29;20037;-76
2022/01/13 02:06:21;;;;;;;27.35;12.07;;;;;;;;;;4881459;29;20021;-76
2022/01/13 02:08:46;;;;;;;30.80;11.85;;;;;;;;;;4896694;29;20166;-77
2022/01/13 02:11:11;;;;;;;29.02;11.43;;;;;;;;;;4897714;29;20478;-77
2022/01/13 02:13:45;;;;;;;29.88;12.23;;;;;;;;;;4896391;29;20394;-76
2022/01/13 02:16:26;;;;;;;24.85;8.70;;;;;;;;;;4897867;29;20103;-76
2022/01/13 02:18:51;;;;;;;24.70;10.93;;;;;;;;;;4897954;29;20028;-76
2022/01/13 02:21:16;;;;;;;26.05;10.38;;;;;;;;;;4897994;29;20434;-77
2022/01/13 02:23:42;;;;;;;26.05;11.00;;;;;;;;;;4898073;29;20064;-77
2022/01/13 02:26:09;;;;;;;29.13;11.50;;;;;;;;;;4898680;29;20084;-77
2022/01/13 02:28:35;;;;;;;26.70;11.00;;;;;;;;;;4898860;29;20025;-77
2022/01/13 02:31:01;;;;;;;32.30;12.90;;;;;;;;;;4897754;29;20053;-76
2022/01/13 02:33:26;;;;;;;27.52;11.57;;;;;;;;;;4898670;29;20108;-76
2022/01/13 02:35:52;;;;;;;30.75;13.02;;;;;;;;;;4897334;29;20067;-76
2022/01/13 02:38:26;;;;;;;26.85;11.77;;;;;;;;;;4898638;29;20020;-75
2022/01/13 02:40:55;;;;;;;30.83;11.48;;;;;;;;;;4899320;29;20526;-76
2022/01/13 02:43:20;;;;;;;27.08;10.40;;;;;;;;;;4899835;29;20024;-76
2022/01/13 02:46:03;;;;;;;30.27;12.07;;;;;;;;;;4900159;29;20036;-76
2022/01/13 02:48:30;;;;;;;26.83;11.37;;;;;;;;;;4898271;29;20112;-76
2022/01/13 02:50:56;;;;;;;30.45;10.45;;;;;;;;;;4896253;29;20020;-76
2022/01/13 02:53:22;;;;;;;26.38;12.15;;;;;;;;;;4897394;29;20072;-76
2022/01/13 02:55:47;;;;;;;28.97;11.93;;;;;;;;;;4897546;29;20020;-76
2022/01/13 02:58:13;;;;;;;25.23;12.05;;;;;;;;;;4896453;29;20167;-77
2022/01/13 03:00:39;;;;;;;27.88;12.63;;;;;;;;;;4898025;29;20541;-76
2022/01/13 03:03:04;;;;;;;24.95;10.68;;;;;;;;;;4880242;29;20061;-77
2022/01/13 03:05:31;;;;;;;23.38;10.93;;;;;;;;;;4880163;29;20036;-77
2022/01/13 03:07:56;;;;;;;28.58;11.43;;;;;;;;;;4880212;29;20069;-75
2022/01/13 03:10:21;;;;;;;27.60;11.70;;;;;;;;;;4897199;29;20017;-77
2022/01/13 03:12:47;;;;;;;23.73;10.10;;;;;;;;;;4896831;29;20020;-76
2022/01/13 03:15:12;;;;;;;27.35;11.43;;;;;;;;;;4896984;29;20025;-76
2022/01/13 03:17:37;;;;;;;30.10;11.55;;;;;;;;;;4897006;29;20025;-76
2022/01/13 03:20:03;;;;;;;29.55;12.07;;;;;;;;;;4896874;29;20024;-76
2022/01/13 03:22:28;;;;;;;33.28;12.45;;;;;;;;;;4896722;29;20113;-75
2022/01/13 03:24:53;;;;;;;25.70;10.88;;;;;;;;;;4895785;29;20025;-76
2022/01/13 03:27:22;;;;;;;25.20;12.48;;;;;;;;;;4896810;29;20028;-76
2022/01/13 03:29:47;;;;;;;27.85;11.05;;;;;;;;;;4879839;29;20024;-76
2022/01/13 03:32:12;;;;;;;25.25;11.75;;;;;;;;;;4896657;29;20021;-76
2022/01/13 03:34:38;;;;;;;26.50;10.48;;;;;;;;;;4896824;29;20024;-75
2022/01/13 03:37:03;;;;;;;27.95;10.93;;;;;;;;;;4895753;29;20026;-76
2022/01/13 03:39:29;;;;;;;26.45;11.80;;;;;;;;;;4896896;29;20104;-77
2022/01/13 03:41:54;;;;;;;23.58;10.38;;;;;;;;;;4879876;29;20053;-76
2022/01/13 03:44:28;;;;;;;31.10;10.70;;;;;;;;;;4899009;29;20024;-76
2022/01/13 03:46:59;;;;;;;27.10;11.67;;;;;;;;;;4898200;29;20048;-76
2022/01/13 03:49:24;;;;;;;23.83;10.63;;;;;;;;;;4896722;29;20069;-75
2022/01/13 03:51:49;;;;;;;27.50;12.07;;;;;;;;;;4896654;29;20024;-75
2022/01/13 03:54:33;;;;;;;24.02;11.07;;;;;;;;;;4896702;29;20020;-76
2022/01/13 03:57:28;;;;;;;24.55;10.48;;;;;;;;;;4896664;29;20059;-76
2022/01/13 04:00:12;;;;;;;26.92;11.23;;;;;;;;;;4829453;29;20042;-76
2022/01/13 04:02:38;;;;;;;28.23;10.35;;;;;;;;;;4896547;29;20029;-76
2022/01/13 04:05:03;;;;;;;24.08;10.77;;;;;;;;;;4896000;29;20025;-75
2022/01/13 04:07:28;;;;;;;21.73;10.20;;;;;;;;;;4881401;29;20059;-76
2022/01/13 04:09:53;;;;;;;24.13;10.60;;;;;;;;;;4899237;29;20387;-76
2022/01/13 04:12:20;;;;;;;22.92;10.32;;;;;;;;;;4900084;29;20017;-76
2022/01/13 04:14:55;;;;;;;27.88;10.07;;;;;;;;;;4900163;29;20055;-76
2022/01/13 04:17:21;;;;;;;27.63;12.03;;;;;;;;;;4898814;29;20417;-77
2022/01/13 04:19:47;;;;;;;26.90;11.35;;;;;;;;;;4899859;29;20023;-76
2022/01/13 04:22:13;;;;;;;20.87;9.53;;;;;;;;;;4899781;29;20025;-75
2022/01/13 04:24:38;;;;;;;24.38;10.23;;;;;;;;;;4900104;29;20029;-75
2022/01/13 04:27:04;;;;;;;20.38;10.55;;;;;;;;;;4898808;29;20028;-76
2022/01/13 04:29:34;;;;;;;30.33;10.93;;;;;;;;;;4900030;29;20032;-76
2022/01/13 04:32:04;;;;;;;24.95;9.73;;;;;;;;;;4899916;29;20393;-75
2022/01/13 04:34:29;;;;;;;25.77;9.40;;;;;;;;;;4900065;29;20036;-77
2022/01/13 04:36:58;;;;;;;25.15;10.10;;;;;;;;;;4900040;29;20028;-77
2022/01/13 04:39:23;;;;;;;;;;;;;;;;;;4900651;29;20551;-77
2022/01/13 04:41:48;;;;;;;22.20;8.98;;;;;;;;;;4899987;29;20002;-76
2022/01/13 04:44:16;;;;;;;19.95;9.23;;;;;;;;;;4900917;29;20524;-76
2022/01/13 04:46:42;;;;;;;19.83;8.95;;;;;;;;;;4902471;29;20505;-75
2022/01/13 04:49:07;;;;;;;27.67;9.48;;;;;;;;;;4900353;29;20021;-76
2022/01/13 04:51:33;;;;;;;21.17;9.13;;;;;;;;;;4899898;29;20032;-77
2022/01/13 04:53:58;;;;;;;19.23;8.77;;;;;;;;;;4899826;29;20038;-75
2022/01/13 04:56:42;;;;;;;19.60;8.45;;;;;;;;;;4902861;29;20017;-76
2022/01/13 04:59:08;;;;;;;19.40;8.75;;;;;;;;;;4882709;29;20036;-76
2022/01/13 05:01:33;;;;;;;24.30;10.45;;;;;;;;;;4901066;29;20043;-77
2022/01/13 05:03:58;;;;;;;16.00;8.10;;;;;;;;;;4903108;29;20028;-76
2022/01/13 05:06:24;;;;;;;18.85;8.32;;;;;;;;;;4903748;29;20024;-76
2022/01/13 05:08:49;;;;;;;23.30;9.15;;;;;;;;;;4901905;29;20036;-76
2022/01/13 05:11:15;;;;;;;21.35;8.10;;;;;;;;;;4901602;29;20036;-75
2022/01/13 05:13:40;;;;;;;16.27;8.02;;;;;;;;;;4899738;29;20031;-75
2022/01/13 05:16:07;;;;;;;25.48;8.57;;;;;;;;;;4902209;29;20471;-76
2022/01/13 05:21:27;;;;;;;22.38;8.23;;;;;;;;;;4898365;29;20032;-76
2022/01/13 05:23:53;;;;;;;20.02;7.90;;;;;;;;;;4899033;29;20032;-77
2022/01/13 05:26:21;;;;;;;18.77;8.57;;;;;;;;;;4899384;29;20478;-76
2022/01/13 05:28:47;;;;;;;20.73;8.43;;;;;;;;;;4898971;29;20032;-76
2022/01/13 05:31:12;;;;;;;17.40;7.65;;;;;;;;;;4899259;29;20027;-76
2022/01/13 05:33:38;;;;;;;20.27;8.18;;;;;;;;;;4897592;29;20160;-75
2022/01/13 05:36:03;;;;;;;23.20;9.13;;;;;;;;;;4898938;29;20026;-76
2022/01/13 05:38:28;;;;;;;19.73;8.88;;;;;;;;;;4899012;29;20028;-77
2022/01/13 05:40:54;;;;;;;16.75;7.65;;;;;;;;;;4899161;29;20029;-75
2022/01/13 05:43:19;;;;;;;18.17;8.90;;;;;;;;;;4899235;29;20025;-76
2022/01/13 05:45:44;;;;;;;20.92;8.02;;;;;;;;;;4900408;29;20096;-76
2022/01/13 05:48:10;;;;;;;18.15;8.13;;;;;;;;;;4901439;29;20029;-75
2022/01/13 05:50:35;;;;;;;20.95;8.20;;;;;;;;;;4899701;29;20020;-74
2022/01/13 05:53:42;;;;;;;26.77;8.45;;;;;;;;;;4882234;29;20047;-77
2022/01/13 05:56:06;;;;;;;18.73;7.97;;;;;;;;;;4863234;29;20035;-76
2022/01/13 05:58:32;;;;;;;18.52;7.50;;;;;;;;;;4898198;29;20029;-76
2022/01/13 06:00:57;;;;;;;18.02;7.35;;;;;;;;;;4898492;29;20399;-75
2022/01/13 06:03:22;;;;;;;22.00;8.35;;;;;;;;;;4881456;29;20016;-76
2022/01/13 06:05:48;;;;;;;26.75;9.10;;;;;;;;;;4882035;29;20028;-75
2022/01/13 06:08:13;;;;;;;26.27;8.60;;;;;;;;;;4898927;29;20389;-76
2022/01/13 06:10:43;;;;;;;20.65;8.48;;;;;;;;;;4898893;29;20025;-75
2022/01/13 06:13:11;;;;;;;23.77;8.15;;;;;;;;;;4898820;29;20029;-76
2022/01/13 06:15:39;;;;;;;22.48;8.70;;;;;;;;;;4897203;29;20028;-77
2022/01/13 06:18:10;;;;;;;20.58;8.77;;;;;;;;;;4899009;29;20067;-76
2022/01/13 06:20:35;;;;;;;23.48;8.52;;;;;;;;;;4898707;29;20056;-75
2022/01/13 06:23:02;;;;;;;24.17;8.95;;;;;;;;;;4899228;29;20024;-76
2022/01/13 06:25:27;;;;;;;17.27;7.80;;;;;;;;;;4897308;29;20028;-76
2022/01/13 06:27:52;;;;;;;21.63;9.17;;;;;;;;;;4897815;29;20107;-77
2022/01/13 06:30:18;;;;;;;19.67;9.38;;;;;;;;;;4898134;29;20020;-76
2022/01/13 06:32:44;;;;;;;27.05;9.05;;;;;;;;;;4897527;29;20020;-77
2022/01/13 06:35:10;;;;;;;21.98;8.60;;;;;;;;;;4896590;29;20028;-77
2022/01/13 06:37:35;;;;;;;21.33;8.38;;;;;;;;;;4897027;29;20482;-76
2022/01/13 06:40:02;;;;;;;21.52;8.07;;;;;;;;;;4898619;29;20371;-76
2022/01/13 06:42:27;;;;;;;15.02;7.32;;;;;;;;;;4898098;29;20061;-76
2022/01/13 06:44:53;;;;;;;18.48;7.25;;;;;;;;;;4881869;29;20043;-76
2022/01/13 06:47:18;;;;;;;17.67;7.70;;;;;;;;;;4898367;29;20020;-77
2022/01/13 06:49:43;;;;;;;17.88;7.30;;;;;;;;;;4899003;29;20130;-76
2022/01/13 06:52:09;;;;;;;19.07;7.77;;;;;;;;;;4898115;29;20027;-76
2022/01/13 06:54:34;;;;;;;21.40;8.80;;;;;;;;;;4880791;29;20028;-77
2022/01/13 06:56:59;;;;;;;26.73;7.90;;;;;;;;;;4897415;29;20486;-77
2022/01/13 06:59:25;;;;;;;21.75;8.15;;;;;;;;;;4897426;29;20119;-76
2022/01/13 07:01:50;;;;;;;18.15;7.25;;;;;;;;;;4896979;29;20084;-77
2022/01/13 07:04:16;;;;;;;20.85;8.70;;;;;;;;;;4896962;29;20033;-75
2022/01/13 07:06:42;;;;;;;21.33;8.73;;;;;;;;;;4880484;29;20116;-75
2022/01/13 07:09:08;;;;;;;16.60;7.25;;;;;;;;;;4897282;29;20618;-76
2022/01/13 07:11:33;;;;;;;22.63;8.13;;;;;;;;;;4897188;29;20075;-76
2022/01/13 07:13:59;;;;;;;16.92;7.38;;;;;;;;;;4897594;29;20103;-76
2022/01/13 07:16:24;;;;;;;20.23;7.22;;;;;;;;;;4897134;29;20021;-76
2022/01/13 07:18:49;;;;;;;16.92;7.32;;;;;;;;;;4895663;29;20393;-76
2022/01/13 07:21:16;;;;;;;18.40;7.60;;;;;;;;;;4895201;29;20029;-76
2022/01/13 07:23:42;;;;;;;21.73;8.25;;;;;;;;;;4896750;29;20031;-75
2022/01/13 07:26:07;;;;;;;20.63;7.88;;;;;;;;;;4897395;29;20383;-75
2022/01/13 07:28:32;;;;;;;21.38;6.97;;;;;;;;;;4898278;29;20094;-76
2022/01/13 07:30:58;;;;;;;25.90;8.50;;;;;;;;;;4881976;29;20092;-77
2022/01/13 07:33:23;;;;;;;19.75;7.70;;;;;;;;;;4897332;29;20028;-76
2022/01/13 07:35:51;;;;;;;18.38;7.13;;;;;;;;;;4897286;29;20032;-75
2022/01/13 07:38:17;;;;;;;18.55;7.25;;;;;;;;;;4897049;29;20025;-76
2022/01/13 07:40:42;;;;;;;17.75;7.18;;;;;;;;;;4880364;29;20411;-75
2022/01/13 07:43:08;;;;;;;19.98;7.75;;;;;;;;;;4880152;29;20033;-77
2022/01/13 07:45:33;;;;;;;20.90;8.85;;;;;;;;;;4899075;29;20029;-75
2022/01/13 07:47:58;;;;;;;19.85;8.70;;;;;;;;;;4883852;29;20029;-76
2022/01/13 07:50:23;;;;;;;22.48;7.82;;;;;;;;;;4883639;29;20017;-77
2022/01/13 07:52:48;;;;;;;20.38;8.35;;;;;;;;;;4901308;29;20028;-76
2022/01/13 07:55:14;;;;;;;18.98;8.23;;;;;;;;;;4900999;29;20044;-75
2022/01/13 07:57:39;;;;;;;20.20;8.48;;;;;;;;;;4884016;29;20028;-77
2022/01/13 08:00:05;;;;;;;17.33;8.13;;;;;;;;;;4900282;29;20047;-76
2022/01/13 08:02:30;;;;;;;15.48;7.13;;;;;;;;;;4900019;29;20032;-77
2022/01/13 08:04:55;;;;;;;19.55;8.77;;;;;;;;;;4883317;29;20032;-76
2022/01/13 08:07:21;;;;;;;16.98;7.88;;;;;;;;;;4900232;29;20024;-76
2022/01/13 08:09:46;;;;;;;16.45;7.57;;;;;;;;;;4900185;29;20360;-77
2022/01/13 08:12:11;;;;;;;17.27;7.68;;;;;;;;;;4883437;29;20371;-76
2022/01/13 08:14:36;;;;;;;16.10;7.80;;;;;;;;;;4900186;29;20056;-76
2022/01/13 08:17:03;;;;;;;16.90;8.02;;;;;;;;;;4900069;29;20457;-76
2022/01/13 08:22:26;;;;;;;17.02;7.35;;;;;;;;;;4889036;29;20218;-76
2022/01/13 08:24:51;;;;;;;14.13;7.05;;;;;;;;;;4900355;29;20029;-76
2022/01/13 08:27:16;;;;;;;18.38;7.93;;;;;;;;;;4900797;29;20482;-76
2022/01/13 08:29:42;;;;;;;18.95;7.45;;;;;;;;;;4901069;29;20489;-76
2022/01/13 08:32:07;;;;;;;16.58;7.43;;;;;;;;;;4900577;29;20020;-76
2022/01/13 08:34:32;;;;;;;17.70;7.13;;;;;;;;;;4901233;29;20107;-77
2022/01/13 08:36:57;;;;;;;17.77;7.10;;;;;;;;;;4900171;29;20032;-76
2022/01/13 08:39:23;;;;;;;18.10;7.30;;;;;;;;;;4901673;29;20164;-76
2022/01/13 08:41:48;;;;;;;13.20;6.30;;;;;;;;;;4903246;29;20466;-76
2022/01/13 08:44:14;;;;;;;19.60;7.57;;;;;;;;;;4885602;29;20494;-76
2022/01/13 08:46:39;;;;;;;11.77;5.63;;;;;;;;;;4901669;29;20021;-75
2022/01/13 08:49:04;;;;;;;12.55;6.13;;;;;;;;;;4901118;29;20045;-76
2022/01/13 08:51:30;;;;;;;17.52;6.72;;;;;;;;;;4901273;29;20096;-76
2022/01/13 08:53:55;;;;;;;16.65;6.40;;;;;;;;;;4901387;29;20471;-76
2022/01/13 08:56:21;;;;;;;15.00;6.90;;;;;;;;;;4899893;29;20076;-76
2022/01/13 08:58:47;;;;;;;15.27;6.80;;;;;;;;;;4901118;29;20029;-76
2022/01/13 09:01:12;;;;;;;15.90;7.03;;;;;;;;;;4901391;29;20017;-76
2022/01/13 09:03:37;;;;;;;13.23;6.00;;;;;;;;;;4899558;29;20521;-76
2022/01/13 09:06:03;;;;;;;15.95;6.70;;;;;;;;;;4901873;29;20024;-76
2022/01/13 09:08:28;;;;;;;15.15;6.18;;;;;;;;;;4900809;29;20528;-76
2022/01/13 09:10:54;;;;;;;15.57;7.05;;;;;;;;;;4903760;29;20029;-76
2022/01/13 09:13:22;;;;;;;13.73;6.75;;;;;;;;;;4903730;29;20039;-76
2022/01/13 09:15:52;;;;;;;14.13;7.28;;;;;;;;;;4902045;29;20021;-76
2022/01/13 09:18:30;;;;;;;15.85;7.10;;;;;;;;;;4904152;29;20093;-76
2022/01/13 09:20:55;;;;;;;16.20;6.93;;;;;;;;;;4904101;29;20040;-76
2022/01/13 09:23:21;;;;;;;18.65;5.88;;;;;;;;;;4902662;29;20132;-76
2022/01/13 09:25:46;;;;;;;11.85;5.45;;;;;;;;;;4901750;29;20412;-75
2022/01/13 09:28:11;;;;;;;14.00;6.05;;;;;;;;;;4902872;29;20509;-76
2022/01/13 09:30:37;;;;;;;12.30;5.63;;;;;;;;;;4904388;29;20533;-77
2022/01/13 09:33:02;;;;;;;13.23;5.10;;;;;;;;;;4903695;29;20486;-76
2022/01/13 09:35:27;;;;;;;10.52;5.28;;;;;;;;;;4904562;29;20025;-77
2022/01/13 09:37:52;;;;;;;14.88;5.30;;;;;;;;;;4904204;29;20029;-76
2022/01/13 09:40:18;;;;;;;14.77;6.20;;;;;;;;;;4903666;29;20029;-76
2022/01/13 09:42:44;;;;;;;13.48;5.40;;;;;;;;;;4902928;29;20080;-76
2022/01/13 09:45:10;;;;;;;14.63;5.95;;;;;;;;;;4903214;29;20028;-76
2022/01/13 09:47:36;;;;;;;10.90;5.07;;;;;;;;;;4884591;29;20023;-77
2022/01/13 09:50:05;;;;;;;16.33;5.97;;;;;;;;;;4884129;29;20023;-76
2022/01/13 09:52:30;;;;;;;18.98;6.68;;;;;;;;;;4884004;29;20036;-76
2022/01/13 09:54:56;;;;;;;16.48;6.43;;;;;;;;;;4900310;29;20037;-78
2022/01/13 09:57:21;;;;;;;17.65;5.07;;;;;;;;;;4900589;29;20020;-76
2022/01/13 09:59:58;;;;;;;19.52;6.80;;;;;;;;;;4900388;29;20458;-76
2022/01/13 10:02:23;;;;;;;19.25;7.60;;;;;;;;;;4900942;29;20060;-75
2022/01/13 10:04:50;;;;;;;11.90;5.57;;;;;;;;;;4900987;29;20064;-75
2022/01/13 10:07:28;;;;;;;12.63;5.80;;;;;;;;;;4901269;29;20061;-76
2022/01/13 10:09:54;;;;;;;12.55;4.57;;;;;;;;;;4883627;29;20033;-76
2022/01/13 10:12:27;;;;;;;16.85;6.28;;;;;;;;;;4900283;29;20032;-75
2022/01/13 10:17:28;;;;;;;12.98;5.07;;;;;;;;;;4900146;29;20262;-78
2022/01/13 10:19:57;;;;;;;11.02;4.75;;;;;;;;;;4882624;29;20021;-77
2022/01/13 10:22:30;;;;;;;10.68;5.43;;;;;;;;;;4898360;29;20390;-77
2022/01/13 10:24:57;;;;;;;12.02;5.00;;;;;;;;;;4898341;29;20021;-77
2022/01/13 10:27:23;;;;;;;13.27;5.72;;;;;;;;;;4881039;29;20035;-76
2022/01/13 10:29:50;;;;;;;14.63;5.72;;;;;;;;;;4897855;29;20025;-76
2022/01/13 10:32:18;;;;;;;14.35;6.07;;;;;;;;;;4880594;29;20025;-76
2022/01/13 10:34:44;;;;;;;14.35;5.93;;;;;;;;;;4898079;29;20025;-76
2022/01/13 10:37:13;;;;;;;14.63;6.55;;;;;;;;;;4897908;29;20509;-77
2022/01/13 10:39:57;;;;;;;16.88;6.55;;;;;;;;;;4897850;29;20032;-76
2022/01/13 10:43:06;;;;;;;16.20;6.10;;;;;;;;;;4897767;29;20028;-76
2022/01/13 10:45:19;;;;;;;13.30;5.90;;;;;;;;;;4896973;29;20088;-76
2022/01/13 10:47:57;;;;;;;14.90;6.15;;;;;;;;;;4897139;29;20020;-77
2022/01/13 10:50:26;;;;;;;13.32;6.10;;;;;;;;;;4897430;29;20088;-76
2022/01/13 10:52:52;;;;;;;15.65;6.72;;;;;;;;;;4897857;29;20116;-77
2022/01/13 10:55:19;;;;;;;16.40;6.85;;;;;;;;;;4899524;29;20048;-76
2022/01/13 10:57:44;;;;;;;17.15;6.88;;;;;;;;;;4899441;29;20024;-76
2022/01/13 11:00:10;;;;;;;17.75;7.07;;;;;;;;;;4881705;29;20036;-76
2022/01/13 11:02:35;;;;;;;12.77;5.80;;;;;;;;;;4880251;29;20028;-77
2022/01/13 11:05:01;;;;;;;20.25;6.53;;;;;;;;;;4896815;29;20017;-77
2022/01/13 11:07:27;;;;;;;20.30;8.10;;;;;;;;;;4897032;29;20504;-77
2022/01/13 11:09:54;;;;;;;17.08;6.85;;;;;;;;;;4897249;29;20024;-77
2022/01/13 11:12:30;;;;;;;16.73;7.10;;;;;;;;;;4897017;29;20021;-77
2022/01/13 11:15:01;;;;;;;14.40;6.35;;;;;;;;;;4896955;29;20020;-76
2022/01/13 11:17:28;;;;;;;19.95;9.55;;;;;;;;;;4880465;29;20136;-77
2022/01/13 11:19:54;;;;;;;12.90;6.57;;;;;;;;;;4896897;29;20020;-76
2022/01/13 11:22:21;;;;;;;24.10;7.90;;;;;;;;;;4898216;29;20524;-77
2022/01/13 11:24:47;;;;;;;17.77;7.78;;;;;;;;;;4897526;29;20024;-78
2022/01/13 11:27:13;;;;;;;15.20;7.43;;;;;;;;;;4897606;29;20039;-77
2022/01/13 11:29:39;;;;;;;14.27;6.80;;;;;;;;;;4897653;29;20029;-76
2022/01/13 11:32:07;;;;;;;20.58;6.80;;;;;;;;;;4897257;29;20088;-77
2022/01/13 11:34:32;;;;;;;13.02;6.57;;;;;;;;;;4896165;29;20498;-77
2022/01/13 11:36:57;;;;;;;12.40;5.90;;;;;;;;;;4897286;29;20097;-77
2022/01/13 11:39:39;;;;;;;16.63;7.78;;;;;;;;;;4896648;29;20069;-77
2022/01/13 11:42:05;;;;;;;17.15;6.88;;;;;;;;;;4896926;29;20095;-77
2022/01/13 11:44:31;;;;;;;12.60;6.50;;;;;;;;;;4897107;29;20103;-77
2022/01/13 11:46:56;;;;;;;13.13;6.18;;;;;;;;;;4895854;29;20051;-76
2022/01/13 11:49:36;;;;;;;16.75;7.63;;;;;;;;;;4897217;29;20102;-76
2022/01/13 11:52:12;;;;;;;13.70;5.88;;;;;;;;;;4896864;29;20012;-76
2022/01/13 11:54:38;;;;;;;14.32;6.68;;;;;;;;;;4897444;29;20085;-75
2022/01/13 11:57:23;;;;;;;10.88;6.15;;;;;;;;;;4897788;29;20047;-77
2022/01/13 11:59:58;;;;;;;12.13;6.00;;;;;;;;;;4896642;29;20029;-77
2022/01/13 12:02:30;;;;;;;15.20;5.82;;;;;;;;;;4904226;23;20048;-76
2022/01/13 12:04:58;;;;;;;16.70;6.93;;;;;;;;;;4914950;29;20115;-75
2022/01/13 12:07:33;;;;;;;13.63;6.93;;;;;;;;;;4915085;29;20111;-76
2022/01/13 12:09:58;;;;;;;18.80;5.88;;;;;;;;;;4915298;29;20024;-76
2022/01/13 12:12:33;;;;;;;19.23;7.47;;;;;;;;;;4915115;29;20016;-76
2022/01/13 12:15:13;;;;;;;14.02;6.35;;;;;;;;;;4915162;29;20032;-76
2022/01/13 12:17:45;;;;;;;13.20;7.35;;;;;;;;;;4915449;29;20090;-76
2022/01/13 12:20:39;;;;;;;11.48;6.32;;;;;;;;;;4882950;29;20032;-76
2022/01/13 12:23:16;;;;;;;14.27;6.05;;;;;;;;;;4897925;29;20537;-75
2022/01/13 12:25:42;;;;;;;14.65;6.15;;;;;;;;;;4898020;29;20024;-75
2022/01/13 12:28:14;;;;;;;16.50;6.13;;;;;;;;;;4898196;29;20032;-75
2022/01/13 12:30:40;;;;;;;15.27;6.18;;;;;;;;;;4915624;29;20024;-75
2022/01/13 12:33:07;;;;;;;12.88;5.00;;;;;;;;;;4918356;29;20039;-75
2022/01/13 12:35:39;;;;;;;10.82;5.13;;;;;;;;;;4918724;29;20082;-75
2022/01/13 12:38:09;;;;;;;11.98;5.03;;;;;;;;;;4918606;29;20180;-75
2022/01/13 12:40:46;;;;;;;15.77;5.63;;;;;;;;;;4918340;29;20111;-75
2022/01/13 12:46:09;;;;;;;12.52;5.18;;;;;;;;;;4918639;29;20031;-75
2022/01/13 12:48:36;;;;;;;16.15;5.00;;;;;;;;;;4918296;29;20095;-75
2022/01/13 12:51:01;;;;;;;11.80;3.97;;;;;;;;;;4918104;29;20107;-75
2022/01/13 12:53:28;;;;;;;15.25;5.38;;;;;;;;;;4917800;29;20051;-76
2022/01/13 12:55:53;;;;;;;16.75;6.15;;;;;;;;;;4918599;29;20417;-75
2022/01/13 12:58:19;;;;;;;15.32;5.47;;;;;;;;;;4919140;29;20024;-75
2022/01/13 13:00:45;;;;;;;14.52;5.70;;;;;;;;;;4918063;29;20070;-75
2022/01/13 13:03:10;;;;;;;11.40;5.18;;;;;;;;;;4917563;29;20119;-75
2022/01/13 13:05:45;;;;;;;16.23;5.13;;;;;;;;;;4918418;29;20107;-75
2022/01/13 13:08:12;;;;;;;12.60;4.68;;;;;;;;;;4900809;29;20020;-75
2022/01/13 13:10:40;;;;;;;11.40;5.20;;;;;;;;;;4900930;29;20024;-75
2022/01/13 13:13:06;;;;;;;9.68;4.32;;;;;;;;;;4901158;29;20108;-75
2022/01/13 13:18:52;;;;;;;11.18;5.20;;;;;;;;;;4878269;29;20033;-75
2022/01/13 13:21:17;;;;;;;12.95;5.32;;;;;;;;;;4909232;29;20040;-75
2022/01/13 13:23:44;;;;;;;14.32;5.57;;;;;;;;;;4917616;29;20031;-75
2022/01/13 13:26:13;;;;;;;10.93;5.78;;;;;;;;;;4900751;29;20039;-75
2022/01/13 13:28:48;;;;;;;11.05;4.85;;;;;;;;;;4918586;29;20046;-76
2022/01/13 13:31:20;;;;;;;10.63;4.97;;;;;;;;;;4917618;29;20032;-75
2022/01/13 13:33:50;;;;;;;13.35;5.53;;;;;;;;;;4917809;29;20076;-75
2022/01/13 13:36:17;;;;;;;14.70;5.55;;;;;;;;;;4900763;29;20047;-75
2022/01/13 13:38:50;;;;;;;15.75;5.32;;;;;;;;;;4918012;29;20055;-75
2022/01/13 13:41:17;;;;;;;13.48;5.65;;;;;;;;;;4917604;29;20438;-75
2022/01/13 13:43:42;;;;;;;15.05;5.55;;;;;;;;;;4917025;29;20028;-75
2022/01/13 13:46:07;;;;;;;10.20;4.63;;;;;;;;;;4902585;29;20037;-75
2022/01/13 13:48:33;;;;;;;13.70;6.22;;;;;;;;;;4919842;29;20090;-75
2022/01/13 13:50:58;;;;;;;14.27;5.53;;;;;;;;;;4919208;29;20111;-75
2022/01/13 13:53:23;;;;;;;11.35;4.65;;;;;;;;;;4918531;29;20532;-76
2022/01/13 13:56:00;;;;;;;14.32;5.78;;;;;;;;;;4901907;29;20036;-75
2022/01/13 13:58:25;;;;;;;13.68;5.20;;;;;;;;;;4917765;29;20036;-75
2022/01/13 14:01:00;;;;;;;12.35;5.70;;;;;;;;;;4917857;29;20031;-75
2022/01/13 14:03:39;;;;;;;14.23;5.40;;;;;;;;;;4917405;29;20051;-75
2022/01/13 14:06:04;;;;;;;11.18;5.72;;;;;;;;;;4917963;29;20042;-75
2022/01/13 14:08:30;;;;;;;11.68;5.70;;;;;;;;;;4917889;29;20070;-75
2022/01/13 14:11:08;;;;;;;13.63;5.70;;;;;;;;;;4917400;29;20016;-75
2022/01/13 14:13:33;;;;;;;9.60;4.97;;;;;;;;;;4917618;29;20080;-75
2022/01/13 14:15:59;;;;;;;14.65;6.40;;;;;;;;;;4917967;29;20457;-75
2022/01/13 14:18:24;;;;;;;12.25;5.63;;;;;;;;;;4917780;29;20020;-75
2022/01/13 14:20:50;;;;;;;11.63;5.13;;;;;;;;;;4917861;29;20020;-75
2022/01/13 14:23:20;;;;;;;13.93;5.53;;;;;;;;;;4900129;29;20020;-75
2022/01/13 14:25:47;;;;;;;12.73;5.95;;;;;;;;;;4916865;29;20123;-75
2022/01/13 14:28:21;;;;;;;12.75;5.60;;;;;;;;;;4900245;29;20075;-75
2022/01/13 14:30:48;;;;;;;11.13;5.57;;;;;;;;;;4917205;29;20024;-75
2022/01/13 14:33:26;;;;;;;14.18;6.25;;;;;;;;;;4917497;29;20024;-76
2022/01/13 14:36:06;;;;;;;14.48;5.88;;;;;;;;;;4899841;29;20474;-75
2022/01/13 14:38:50;;;;;;;12.80;5.72;;;;;;;;;;4900024;29;20035;-75
2022/01/13 14:41:25;;;;;;;14.95;6.13;;;;;;;;;;4899386;29;20446;-75
2022/01/13 14:44:01;;;;;;;11.38;5.97;;;;;;;;;;4916643;29;20020;-75
2022/01/13 14:46:27;;;;;;;12.75;5.68;;;;;;;;;;4915913;29;20115;-75
2022/01/13 14:48:53;;;;;;;11.40;5.28;;;;;;;;;;4900326;29;20028;-76
2022/01/13 14:51:19;;;;;;;10.02;5.40;;;;;;;;;;4901732;29;20390;-75
2022/01/13 14:53:44;;;;;;;14.65;5.43;;;;;;;;;;4917120;29;20155;-75
2022/01/13 14:56:11;;;;;;;13.85;5.85;;;;;;;;;;4916554;29;20107;-75